Time;durP1;ratioP1;P1;durP2;ratioP2;P2;SDS_P1;SDS_P2;PMS_P1;PMS_P2;Temp;Humidity;BMP_temperature;BMP_pressure;BME280_temperature;BME280_humidity;BME280_pressure;Samples;Min_cycle;Max_cycle;Signal;HPM_P1;HPM_P2
2022/03/06 00:00:01;;;;;;;49.67;22.20;;;;;;;-145.18;100.00;46615.47;4950496;28;20043;-63
2022/03/06 00:02:27;;;;;;;50.47;22.45;;;;;;;-145.18;100.00;46652.59;4949757;28;20050;-63
2022/03/06 00:04:52;;;;;;;54.13;22.07;;;;;;;-145.18;100.00;46652.59;4950497;28;20142;-63
2022/03/06 00:07:18;;;;;;;50.27;22.20;;;;;;;-145.18;100.00;46652.59;4950602;28;20598;-63
2022/03/06 00:09:45;;;;;;;55.72;23.38;;;;;;;-145.18;100.00;46617.41;4950146;28;20051;-63
2022/03/06 00:12:11;;;;;;;55.43;23.27;;;;;;;-145.18;100.00;46617.41;4950243;28;20101;-63
2022/03/06 00:14:38;;;;;;;56.78;24.38;;;;;;;-145.18;100.00;46650.63;4950140;28;20122;-63
2022/03/06 00:17:03;;;;;;;56.03;22.58;;;;;;;-145.18;100.00;46642.81;4932869;28;20532;-63
2022/03/06 00:19:28;;;;;;;51.63;21.83;;;;;;;-145.18;100.00;46625.22;4950152;28;20047;-63
2022/03/06 00:21:54;;;;;;;52.97;22.63;;;;;;;-145.18;100.00;46654.53;4949046;28;20039;-63
2022/03/06 00:24:19;;;;;;;50.90;22.13;;;;;;;-145.18;100.00;46652.59;4950921;28;20062;-63
2022/03/06 00:26:44;;;;;;;54.43;22.37;;;;;;;-145.18;100.00;46615.47;4949407;28;20050;-63
2022/03/06 00:29:10;;;;;;;51.07;23.57;;;;;;;-145.18;100.00;46640.88;4949993;28;20905;-63
2022/03/06 00:31:39;;;;;;;51.70;22.40;;;;;;;-145.18;100.00;46656.50;4949352;28;20098;-63
2022/03/06 00:34:05;;;;;;;47.45;20.48;;;;;;;-145.18;100.00;46650.63;4949931;28;20135;-64
2022/03/06 00:36:30;;;;;;;53.13;22.93;;;;;;;-145.18;100.00;46652.59;4949368;28;20559;-63
2022/03/06 00:38:55;;;;;;;52.33;22.53;;;;;;;-145.18;100.00;46613.50;4950552;28;20046;-63
2022/03/06 00:41:23;;;;;;;51.63;21.50;;;;;;;-145.18;100.00;46623.28;4949538;28;20496;-63
2022/03/06 00:43:49;;;;;;;52.00;21.58;;;;;;;-145.18;100.00;46635.00;4949781;28;20056;-63
2022/03/06 00:46:14;;;;;;;52.77;22.50;;;;;;;-145.18;100.00;46625.22;4949149;28;20050;-63
2022/03/06 00:48:40;;;;;;;54.27;22.30;;;;;;;-145.18;100.00;46635.00;4949828;28;20098;-63
2022/03/06 00:51:06;;;;;;;52.37;22.43;;;;;;;-145.18;100.00;46631.09;4949555;28;20551;-63
2022/03/06 00:53:31;;;;;;;50.40;20.77;;;;;;;-145.18;100.00;46625.22;4949414;28;20138;-63
2022/03/06 00:55:56;;;;;;;46.47;21.27;;;;;;;-145.18;100.00;46625.22;4950318;28;20074;-63
2022/03/06 00:58:22;;;;;;;42.63;20.43;;;;;;;-145.18;100.00;46635.00;4949212;28;20058;-63
2022/03/06 01:00:48;;;;;;;48.70;20.60;;;;;;;-145.18;100.00;46629.13;4949440;28;20039;-63
2022/03/06 01:03:22;;;;;;;47.40;21.17;;;;;;;-145.18;100.00;46650.63;4948891;28;20065;-63
2022/03/06 01:05:48;;;;;;;44.38;19.27;;;;;;;-145.18;100.00;46635.00;4949423;28;20482;-63
2022/03/06 01:08:14;;;;;;;46.13;20.33;;;;;;;-145.18;100.00;46636.94;4931940;28;20045;-63
2022/03/06 01:10:42;;;;;;;46.80;20.67;;;;;;;-145.18;100.00;46648.69;4949369;28;20038;-63
2022/03/06 01:13:08;;;;;;;44.45;20.80;;;;;;;-145.18;100.00;46636.94;4949072;28;20503;-63
2022/03/06 01:15:34;;;;;;;46.63;19.80;;;;;;;-145.18;100.00;46633.06;4949676;28;20094;-63
2022/03/06 01:18:00;;;;;;;48.37;19.73;;;;;;;-145.18;100.00;46638.91;4932077;28;20043;-63
2022/03/06 01:20:26;;;;;;;46.13;19.70;;;;;;;-145.18;100.00;46615.47;4931896;28;20047;-62
2022/03/06 01:22:53;;;;;;;47.20;20.23;;;;;;;-145.18;100.00;46629.13;4948977;28;20042;-63
2022/03/06 01:25:20;;;;;;;47.25;20.75;;;;;;;-145.18;100.00;46625.22;4949226;28;20051;-63
2022/03/06 01:27:46;;;;;;;48.15;20.48;;;;;;;-145.18;100.00;46627.19;4947005;28;20151;-63
2022/03/06 01:30:15;;;;;;;47.67;21.40;;;;;;;-145.18;100.00;46621.31;4949345;28;20126;-63
2022/03/06 01:32:41;;;;;;;49.05;21.50;;;;;;;-145.18;100.00;46650.63;4949175;28;20750;-63
2022/03/06 01:35:07;;;;;;;48.95;19.80;;;;;;;-145.18;100.00;46652.59;4953621;28;20094;-63
2022/03/06 01:37:33;;;;;;;49.97;21.43;;;;;;;-145.18;100.00;46652.59;4952437;28;20043;-63
2022/03/06 01:39:58;;;;;;;48.13;21.03;;;;;;;-145.18;100.00;46636.94;4953158;28;20035;-63
2022/03/06 01:42:24;;;;;;;48.00;21.20;;;;;;;-145.18;100.00;46633.06;4952496;28;20098;-63
2022/03/06 01:44:52;;;;;;;50.13;19.93;;;;;;;-145.18;100.00;46629.13;4953135;28;20042;-63
2022/03/06 01:47:40;;;;;;;48.13;20.70;;;;;;;-145.18;100.00;46631.09;4952807;28;20054;-63
2022/03/06 01:50:08;;;;;;;48.67;20.88;;;;;;;-145.18;100.00;46623.28;4953089;28;20585;-63
2022/03/06 01:52:34;;;;;;;49.05;20.30;;;;;;;-145.18;100.00;46623.28;4952338;28;20528;-63
2022/03/06 01:54:59;;;;;;;45.87;21.30;;;;;;;-145.18;100.00;46627.19;4952846;28;20123;-63
2022/03/06 01:57:26;;;;;;;48.40;20.13;;;;;;;-145.18;100.00;46621.31;4952230;28;20056;-63
2022/03/06 01:59:51;;;;;;;45.83;21.52;;;;;;;-145.18;100.00;46627.19;4935854;28;20489;-63
2022/03/06 02:02:18;;;;;;;44.83;20.53;;;;;;;-145.18;100.00;46627.19;4952776;28;20058;-63
2022/03/06 02:04:43;;;;;;;50.75;21.88;;;;;;;-145.18;100.00;46627.19;4952541;28;20055;-63
2022/03/06 02:07:09;;;;;;;43.67;19.87;;;;;;;-145.18;100.00;46625.22;4935319;28;20050;-63
2022/03/06 02:09:34;;;;;;;50.87;19.87;;;;;;;-145.18;100.00;46619.38;4952575;28;20075;-63
2022/03/06 02:14:44;;;;;;;50.45;21.10;;;;;;;-145.18;100.00;46631.09;4952460;28;20093;-63
2022/03/06 02:17:09;;;;;;;45.63;20.87;;;;;;;-145.18;100.00;46613.50;4952198;28;20123;-63
2022/03/06 02:19:54;;;;;;;46.83;20.77;;;;;;;-145.18;100.00;46623.28;4952268;28;20043;-63
2022/03/06 02:22:22;;;;;;;47.70;19.58;;;;;;;-145.18;100.00;46623.28;4952502;28;20046;-63
2022/03/06 02:24:48;;;;;;;50.00;20.35;;;;;;;-145.18;100.00;46619.38;4952412;28;20472;-63
2022/03/06 02:27:13;;;;;;;48.43;21.47;;;;;;;-145.18;100.00;46625.22;4952102;28;20094;-63
2022/03/06 02:29:43;;;;;;;48.00;22.20;;;;;;;-145.18;100.00;46619.38;4952032;28;20486;-63
2022/03/06 02:32:09;;;;;;;46.65;20.92;;;;;;;-145.18;100.00;46619.38;4951914;28;20067;-63
2022/03/06 02:34:37;;;;;;;46.47;19.95;;;;;;;-145.18;100.00;46621.31;4951897;28;20035;-64
2022/03/06 02:37:02;;;;;;;43.13;20.25;;;;;;;-145.18;100.00;46627.19;4951847;28;20524;-63
2022/03/06 02:39:28;;;;;;;49.10;20.93;;;;;;;-145.18;100.00;46631.09;4952444;28;20050;-63
2022/03/06 02:41:53;;;;;;;42.23;19.80;;;;;;;-145.18;100.00;46619.38;4951707;28;20047;-63
2022/03/06 02:44:19;;;;;;;40.90;19.23;;;;;;;-145.18;100.00;46631.09;4950732;28;20051;-63
2022/03/06 02:46:45;;;;;;;47.90;21.30;;;;;;;-145.18;100.00;46631.09;4951276;28;20039;-63
2022/03/06 02:49:12;;;;;;;40.63;19.30;;;;;;;-145.18;100.00;46638.91;4951916;28;20039;-63
2022/03/06 02:51:37;;;;;;;45.83;20.30;;;;;;;-145.18;100.00;46636.94;4951239;28;20027;-63
2022/03/06 02:54:03;;;;;;;45.67;20.43;;;;;;;-145.18;100.00;46621.31;4952453;28;20054;-63
2022/03/06 02:56:28;;;;;;;41.90;19.07;;;;;;;-145.18;100.00;46623.28;4951395;28;20566;-63
2022/03/06 02:58:54;;;;;;;40.07;19.63;;;;;;;-145.18;100.00;46623.28;4951709;28;20051;-63
2022/03/06 03:03:54;;;;;;;42.33;19.27;;;;;;;-145.18;100.00;46627.19;4707992;23;20110;-62
2022/03/06 03:06:20;;;;;;;42.33;18.60;;;;;;;-145.18;100.00;46631.09;4954936;29;20027;-62
2022/03/06 03:08:48;;;;;;;35.73;17.83;;;;;;;-145.18;100.00;46629.13;4952502;28;20455;-62
2022/03/06 03:11:14;;;;;;;37.25;17.70;;;;;;;-145.18;100.00;46635.00;4951566;28;20047;-62
2022/03/06 03:13:40;;;;;;;41.13;19.48;;;;;;;-145.18;100.00;46636.94;4950990;28;20043;-62
2022/03/06 03:16:07;;;;;;;37.17;18.93;;;;;;;-145.18;100.00;46638.91;4951413;28;20536;-62
2022/03/06 03:18:32;;;;;;;38.05;17.58;;;;;;;-145.18;100.00;46631.09;4951645;28;20047;-63
2022/03/06 03:20:58;;;;;;;34.63;17.23;;;;;;;-145.18;100.00;46635.00;4951178;28;20058;-62
2022/03/06 03:23:23;;;;;;;35.60;19.07;;;;;;;-145.18;100.00;46633.06;4950886;28;20106;-62
2022/03/06 03:25:49;;;;;;;36.80;17.17;;;;;;;-145.18;100.00;46633.06;4952196;28;20278;-62
2022/03/06 03:28:14;;;;;;;38.03;17.60;;;;;;;-145.18;100.00;46636.94;4950945;28;20563;-62
2022/03/06 03:30:40;;;;;;;39.40;17.77;;;;;;;-145.18;100.00;46631.09;4951340;28;20439;-62
2022/03/06 03:33:05;;;;;;;33.83;16.83;;;;;;;-145.18;100.00;46636.94;4950636;28;20043;-62
2022/03/06 03:35:30;;;;;;;35.13;17.20;;;;;;;-145.18;100.00;46633.06;4934085;28;20514;-62
2022/03/06 03:37:56;;;;;;;31.43;15.73;;;;;;;-145.18;100.00;46638.91;4951097;28;20106;-62
2022/03/06 03:40:21;;;;;;;36.17;17.13;;;;;;;-145.18;100.00;46636.94;4951310;28;20467;-62
2022/03/06 03:42:47;;;;;;;31.80;15.83;;;;;;;-145.18;100.00;46633.06;4950838;28;20045;-62
2022/03/06 03:45:12;;;;;;;32.90;17.10;;;;;;;-145.18;100.00;46636.94;4950807;28;20134;-62
2022/03/06 03:47:38;;;;;;;37.10;17.47;;;;;;;-145.18;100.00;46642.81;4950536;28;20243;-62
2022/03/06 03:50:04;;;;;;;31.10;16.17;;;;;;;-145.18;100.00;46635.00;4933755;28;20066;-62
2022/03/06 03:52:30;;;;;;;31.65;16.02;;;;;;;-145.18;100.00;46631.09;4950608;28;20047;-62
2022/03/06 03:54:55;;;;;;;32.90;16.27;;;;;;;-145.18;100.00;46633.06;4951378;28;20050;-62
2022/03/06 03:57:23;;;;;;;31.90;16.23;;;;;;;-145.18;100.00;46638.91;4949815;28;20062;-62
2022/03/06 03:59:49;;;;;;;32.10;16.13;;;;;;;-145.18;100.00;46636.94;4950975;28;20047;-62
2022/03/06 04:02:14;;;;;;;29.53;17.00;;;;;;;-145.18;100.00;46631.09;4949775;28;20534;-62
2022/03/06 04:04:40;;;;;;;30.67;15.47;;;;;;;-145.18;100.00;46633.06;4950869;28;20040;-62
2022/03/06 04:07:06;;;;;;;32.17;15.90;;;;;;;-145.18;100.00;46627.19;4950071;28;20051;-62
2022/03/06 04:09:31;;;;;;;31.67;16.17;;;;;;;-145.18;100.00;46631.09;4951168;28;20039;-62
2022/03/06 04:11:57;;;;;;;34.27;16.73;;;;;;;-145.18;100.00;46625.22;4950395;28;20130;-62
2022/03/06 04:14:22;;;;;;;31.03;15.53;;;;;;;-145.18;100.00;46629.13;4950559;28;20559;-62
2022/03/06 04:16:48;;;;;;;31.30;16.00;;;;;;;-145.18;100.00;46629.13;4950475;28;20039;-62
2022/03/06 04:19:13;;;;;;;31.43;15.67;;;;;;;-145.18;100.00;46629.13;4949821;28;20488;-62
2022/03/06 04:21:38;;;;;;;36.10;15.20;;;;;;;-145.18;100.00;46625.22;4950379;28;20067;-62
2022/03/06 04:24:04;;;;;;;31.40;15.80;;;;;;;-145.18;100.00;46625.22;4950413;28;20050;-62
2022/03/06 04:26:29;;;;;;;32.63;15.87;;;;;;;-145.18;100.00;46623.28;4950163;28;20098;-62
2022/03/06 04:28:55;;;;;;;30.00;15.33;;;;;;;-145.18;100.00;46623.28;4949911;28;20095;-62
2022/03/06 04:31:20;;;;;;;32.73;16.13;;;;;;;-145.18;100.00;46613.50;4950005;28;20047;-63
2022/03/06 04:33:45;;;;;;;30.40;15.77;;;;;;;-145.18;100.00;46619.38;4949791;28;20043;-62
2022/03/06 04:36:11;;;;;;;27.93;14.70;;;;;;;-145.18;100.00;46625.22;4949999;28;20480;-63
2022/03/06 04:38:38;;;;;;;30.97;15.60;;;;;;;-145.18;100.00;46619.38;4949831;28;20078;-62
2022/03/06 04:41:04;;;;;;;30.95;15.98;;;;;;;-145.18;100.00;46623.28;4948671;28;20051;-62
2022/03/06 04:43:29;;;;;;;30.48;15.40;;;;;;;-145.18;100.00;46621.31;4948338;28;20043;-62
2022/03/06 04:45:55;;;;;;;30.13;15.47;;;;;;;-145.18;100.00;46625.22;4949531;28;20476;-62
2022/03/06 04:48:20;;;;;;;30.43;16.57;;;;;;;-145.18;100.00;46625.22;4931972;28;20062;-62
2022/03/06 04:50:45;;;;;;;37.27;16.43;;;;;;;-145.18;100.00;46627.19;4949496;28;20051;-62
2022/03/06 04:53:11;;;;;;;31.07;17.10;;;;;;;-145.18;100.00;46619.38;4949254;28;20554;-62
2022/03/06 04:55:36;;;;;;;33.63;17.23;;;;;;;-145.18;100.00;46621.31;4949278;28;20129;-62
2022/03/06 04:58:02;;;;;;;35.33;17.43;;;;;;;-145.18;100.00;46621.31;4948625;28;20031;-62
2022/03/06 05:00:27;;;;;;;31.60;16.97;;;;;;;-145.18;100.00;46621.31;4947632;28;20416;-62
2022/03/06 05:02:53;;;;;;;33.83;16.73;;;;;;;-145.18;100.00;46619.38;4948741;28;20039;-62
2022/03/06 05:05:18;;;;;;;36.37;17.37;;;;;;;-145.18;100.00;46617.41;4955819;28;20038;-63
2022/03/06 05:07:44;;;;;;;34.23;16.40;;;;;;;-145.18;100.00;46619.38;4949090;28;20721;-63
2022/03/06 05:10:09;;;;;;;33.60;16.90;;;;;;;-145.18;100.00;46619.38;4949021;28;20500;-62
2022/03/06 05:12:36;;;;;;;30.13;16.33;;;;;;;-145.18;100.00;46625.22;4948779;28;20043;-62
2022/03/06 05:15:02;;;;;;;36.10;18.23;;;;;;;-145.18;100.00;46623.28;4949120;28;20398;-62
2022/03/06 05:17:27;;;;;;;32.00;16.83;;;;;;;-145.18;100.00;46615.47;4931434;29;20055;-63
2022/03/06 05:19:52;;;;;;;32.17;18.00;;;;;;;-145.18;100.00;46623.28;4947251;28;20124;-62
2022/03/06 05:22:18;;;;;;;36.23;17.93;;;;;;;-145.18;100.00;46615.47;4948188;28;20098;-62
2022/03/06 05:24:43;;;;;;;37.53;17.37;;;;;;;-145.18;100.00;46619.38;4948710;28;20066;-62
2022/03/06 05:27:09;;;;;;;32.23;18.03;;;;;;;-145.18;100.00;46615.47;4946892;28;20047;-62
2022/03/06 05:29:34;;;;;;;34.50;19.23;;;;;;;-145.18;100.00;46619.38;4947358;28;20566;-62
2022/03/06 05:31:59;;;;;;;33.63;18.60;;;;;;;-145.18;100.00;46617.41;4949209;28;20049;-63
2022/03/06 05:34:25;;;;;;;35.47;18.47;;;;;;;-145.18;100.00;46613.50;4948856;28;20075;-62
2022/03/06 05:36:50;;;;;;;39.40;19.43;;;;;;;-145.18;100.00;46621.31;4948273;28;20047;-62
2022/03/06 05:39:16;;;;;;;31.90;19.10;;;;;;;-145.18;100.00;46617.41;4929310;28;20126;-62
2022/03/06 05:41:41;;;;;;;36.10;18.27;;;;;;;-145.18;100.00;46617.41;4947406;28;20039;-61
2022/03/06 05:44:06;;;;;;;31.00;17.83;;;;;;;-145.18;100.00;46621.31;4946346;28;20051;-62
2022/03/06 05:46:32;;;;;;;31.80;16.93;;;;;;;-145.18;100.00;46625.22;4948186;29;20460;-62
2022/03/06 05:48:57;;;;;;;31.63;17.70;;;;;;;-145.18;100.00;46613.50;4931719;29;20039;-62
2022/03/06 05:51:22;;;;;;;35.10;17.17;;;;;;;-145.18;100.00;46619.38;4948681;28;20492;-62
2022/03/06 05:53:48;;;;;;;34.37;18.13;;;;;;;-145.18;100.00;46621.31;4948582;28;20054;-62
2022/03/06 05:56:13;;;;;;;34.27;18.20;;;;;;;-145.18;100.00;46615.47;4931612;29;20049;-62
2022/03/06 05:58:38;;;;;;;41.47;20.80;;;;;;;-145.18;100.00;46621.31;4948125;28;20075;-62
2022/03/06 06:01:04;;;;;;;35.00;17.77;;;;;;;-145.18;100.00;46615.47;4949610;28;20122;-61
2022/03/06 06:03:29;;;;;;;38.40;18.50;;;;;;;-145.18;100.00;46621.31;4948438;28;20055;-61
2022/03/06 06:05:55;;;;;;;36.50;18.13;;;;;;;-145.18;100.00;46613.50;4949133;28;21469;-61
2022/03/06 06:08:20;;;;;;;35.13;17.87;;;;;;;-145.18;100.00;46615.47;4948268;28;20047;-60
2022/03/06 06:10:45;;;;;;;37.53;19.30;;;;;;;-145.18;100.00;46615.47;4948899;28;20047;-61
2022/03/06 06:13:14;;;;;;;38.53;18.97;;;;;;;-145.18;100.00;46574.44;4948324;28;20071;-61
2022/03/06 06:15:43;;;;;;;38.28;20.55;;;;;;;-145.18;100.00;46572.50;4948795;28;20039;-61
2022/03/06 06:18:09;;;;;;;34.53;18.95;;;;;;;-145.18;100.00;46572.50;4948955;28;20051;-61
2022/03/06 06:20:36;;;;;;;39.85;19.75;;;;;;;-145.18;100.00;46619.38;4951304;28;20039;-61
2022/03/06 06:23:03;;;;;;;34.75;18.08;;;;;;;-145.18;100.00;46570.53;4951672;28;20050;-61
2022/03/06 06:25:28;;;;;;;53.63;20.70;;;;;;;-145.18;100.00;46613.50;4951591;28;20051;-61
2022/03/06 06:27:53;;;;;;;37.20;19.60;;;;;;;-145.18;100.00;46615.47;4952050;28;20039;-61
2022/03/06 06:30:19;;;;;;;34.97;19.37;;;;;;;-145.18;100.00;46617.41;4951807;28;20098;-61
2022/03/06 06:32:44;;;;;;;42.10;22.10;;;;;;;-145.18;100.00;46572.50;4949457;28;20035;-62
2022/03/06 06:35:10;;;;;;;35.80;20.07;;;;;;;-145.18;100.00;46574.44;4947413;28;20062;-61
2022/03/06 06:37:35;;;;;;;37.20;20.70;;;;;;;-145.18;100.00;46568.59;4950306;28;20051;-61
2022/03/06 06:40:01;;;;;;;34.83;20.00;;;;;;;-145.18;100.00;46570.53;4950751;28;20042;-61
2022/03/06 06:42:26;;;;;;;37.57;19.80;;;;;;;-145.18;100.00;46568.59;4946634;28;20044;-61
2022/03/06 06:44:52;;;;;;;37.00;20.43;;;;;;;-145.18;100.00;46572.50;4949888;28;20427;-61
2022/03/06 06:47:17;;;;;;;37.17;19.23;;;;;;;-145.18;100.00;46570.53;4954985;28;20102;-61
2022/03/06 06:49:42;;;;;;;40.30;20.37;;;;;;;-145.18;100.00;46570.53;4952102;28;20086;-61
2022/03/06 06:52:08;;;;;;;40.63;21.07;;;;;;;-145.18;100.00;46566.63;4951706;28;20078;-61
2022/03/06 06:54:33;;;;;;;39.87;21.33;;;;;;;-145.18;100.00;46574.44;4951171;28;20039;-61
2022/03/06 06:56:58;;;;;;;38.13;20.73;;;;;;;-145.18;100.00;46566.63;4952080;28;20047;-61
2022/03/06 06:59:24;;;;;;;39.87;20.27;;;;;;;-145.18;100.00;46566.63;4951257;28;20455;-61
2022/03/06 07:01:49;;;;;;;34.33;19.77;;;;;;;-145.18;100.00;46572.50;4952145;28;20149;-61
2022/03/06 07:04:14;;;;;;;44.33;22.10;;;;;;;-145.18;100.00;46576.41;4947515;28;20055;-61
2022/03/06 07:06:40;;;;;;;39.30;20.73;;;;;;;-145.18;100.00;46572.50;4950332;28;20086;-61
2022/03/06 07:09:05;;;;;;;38.83;21.40;;;;;;;-145.18;100.00;46582.25;4949908;28;20047;-61
2022/03/06 07:11:31;;;;;;;35.93;21.07;;;;;;;-145.18;100.00;46578.34;4951329;28;20064;-61
2022/03/06 07:13:56;;;;;;;35.87;19.50;;;;;;;-145.18;100.00;46578.34;4950001;28;20559;-61
2022/03/06 07:16:21;;;;;;;37.00;21.17;;;;;;;-145.18;100.00;46578.34;4943852;28;20496;-61
2022/03/06 07:18:54;;;;;;;35.80;20.90;;;;;;;-145.18;100.00;46584.22;4930945;28;20043;-61
2022/03/06 07:21:27;;;;;;;38.63;21.52;;;;;;;-145.18;100.00;46584.22;4934186;28;20089;-61
2022/03/06 07:23:53;;;;;;;38.35;21.35;;;;;;;-145.18;100.00;46588.13;4939807;28;20050;-61
2022/03/06 07:26:19;;;;;;;36.63;20.40;;;;;;;-145.18;100.00;46588.13;4950482;28;20504;-62
2022/03/06 07:28:44;;;;;;;39.27;21.13;;;;;;;-145.18;100.00;46593.97;4933179;28;20098;-63
2022/03/06 07:31:09;;;;;;;39.63;21.63;;;;;;;-145.18;100.00;46584.22;4950329;28;20496;-63
2022/03/06 07:33:35;;;;;;;42.93;22.43;;;;;;;-145.18;100.00;46592.03;4950664;28;20492;-63
2022/03/06 07:36:00;;;;;;;39.80;20.90;;;;;;;-145.18;100.00;46592.03;4951058;28;20412;-63
2022/03/06 07:38:26;;;;;;;43.20;21.53;;;;;;;-145.18;100.00;46586.16;4949863;28;20040;-63
2022/03/06 07:40:51;;;;;;;37.97;20.77;;;;;;;-145.18;100.00;46586.16;4950838;28;20067;-63
2022/03/06 07:43:16;;;;;;;37.97;21.03;;;;;;;-145.18;100.00;46597.88;4950044;28;20047;-63
2022/03/06 07:45:42;;;;;;;37.20;21.20;;;;;;;-145.18;100.00;46588.13;4951223;28;20046;-63
2022/03/06 07:48:07;;;;;;;40.13;21.37;;;;;;;-145.18;100.00;46592.03;4951679;28;20500;-63
2022/03/06 07:50:33;;;;;;;38.67;20.77;;;;;;;-145.18;100.00;46588.13;4953750;29;20035;-63
2022/03/06 07:52:58;;;;;;;36.27;20.40;;;;;;;-145.18;100.00;46595.94;4953468;29;20391;-63
2022/03/06 07:55:24;;;;;;;36.97;20.97;;;;;;;-145.18;100.00;46597.88;4952454;29;20031;-63
2022/03/06 07:57:49;;;;;;;34.53;19.43;;;;;;;-145.18;100.00;46593.97;4953245;29;20050;-63
2022/03/06 08:00:15;;;;;;;31.63;19.00;;;;;;;-145.18;100.00;46595.94;4952954;28;20042;-62
2022/03/06 08:02:40;;;;;;;34.13;18.13;;;;;;;-145.18;100.00;46599.84;4952905;29;20151;-63
2022/03/06 08:05:07;;;;;;;34.97;19.70;;;;;;;-145.18;100.00;46588.13;4952874;29;20118;-63
2022/03/06 08:07:33;;;;;;;28.90;17.60;;;;;;;-145.18;100.00;46601.78;4953615;29;20551;-63
2022/03/06 08:09:59;;;;;;;39.17;19.77;;;;;;;-145.18;100.00;46621.31;4953070;29;20134;-63
2022/03/06 08:12:26;;;;;;;28.37;17.50;;;;;;;-145.18;100.00;46611.56;4953277;29;20039;-63
2022/03/06 08:14:52;;;;;;;27.15;17.52;;;;;;;-145.18;100.00;46613.50;4952936;29;20035;-63
2022/03/06 08:17:18;;;;;;;31.63;17.13;;;;;;;-145.18;100.00;46617.41;4953179;28;20046;-63
2022/03/06 08:19:44;;;;;;;32.08;18.15;;;;;;;-145.18;100.00;46617.41;4952177;29;20079;-63
2022/03/06 08:22:09;;;;;;;31.17;17.67;;;;;;;-145.18;100.00;46625.22;4935684;29;20071;-63
2022/03/06 08:24:35;;;;;;;31.23;17.80;;;;;;;-145.18;100.00;46635.00;4933459;29;20316;-63
2022/03/06 08:27:00;;;;;;;28.07;16.27;;;;;;;-145.18;100.00;46650.63;4943920;29;20042;-62
2022/03/06 08:29:25;;;;;;;30.20;17.77;;;;;;;-145.18;100.00;46670.16;4918827;29;20035;-63
2022/03/06 08:31:51;;;;;;;26.50;16.77;;;;;;;-145.18;100.00;46662.34;4952158;28;20039;-63
2022/03/06 08:34:16;;;;;;;26.30;16.20;;;;;;;-145.18;100.00;46648.69;4951709;28;20062;-63
2022/03/06 08:36:42;;;;;;;24.77;15.43;;;;;;;-145.18;100.00;46660.41;4952855;29;20428;-63
2022/03/06 08:39:07;;;;;;;24.90;15.73;;;;;;;-145.18;100.00;46691.66;4951154;29;20035;-63
2022/03/06 08:41:33;;;;;;;28.47;16.60;;;;;;;-145.18;100.00;46685.78;4952470;29;20039;-63
2022/03/06 08:43:59;;;;;;;24.33;14.53;;;;;;;-145.18;100.00;46689.69;4951166;28;20051;-63
2022/03/06 08:46:24;;;;;;;26.13;15.37;;;;;;;-145.18;100.00;46687.75;4933924;29;20535;-63
2022/03/06 08:48:50;;;;;;;22.57;13.43;;;;;;;-145.18;100.00;46703.38;4951791;29;20059;-63
2022/03/06 08:51:15;;;;;;;23.60;14.27;;;;;;;-145.18;100.00;46705.31;4952009;29;20039;-63
2022/03/06 08:53:41;;;;;;;21.83;13.70;;;;;;;-145.18;100.00;46717.03;4952081;29;20476;-63
2022/03/06 08:56:06;;;;;;;27.83;14.00;;;;;;;-145.18;100.00;46771.75;4952055;28;20047;-63
2022/03/06 08:58:32;;;;;;;25.80;14.03;;;;;;;-145.18;100.00;46795.19;4952140;29;20369;-63
2022/03/06 09:00:57;;;;;;;18.63;12.43;;;;;;;-145.18;100.00;46795.19;4952489;29;20544;-63
2022/03/06 09:03:22;;;;;;;21.43;13.00;;;;;;;-145.18;100.00;46769.78;4951547;29;20051;-63
2022/03/06 09:05:48;;;;;;;19.53;12.63;;;;;;;-145.18;100.00;46773.69;4952432;28;20035;-63
2022/03/06 09:08:13;;;;;;;21.83;12.60;;;;;;;-145.18;100.00;46806.91;4951297;29;20440;-63
2022/03/06 09:10:40;;;;;;;24.67;12.80;;;;;;;-145.18;100.00;46785.41;4949816;29;20043;-63
2022/03/06 09:13:07;;;;;;;20.48;12.50;;;;;;;-145.18;100.00;46814.72;4949942;28;20043;-63
2022/03/06 09:15:33;;;;;;;18.33;11.55;;;;;;;-145.18;100.00;46865.50;4954389;28;20031;-63
2022/03/06 09:17:59;;;;;;;22.83;14.50;;;;;;;-145.18;100.00;46871.38;4950978;28;20038;-63
2022/03/06 09:20:25;;;;;;;22.00;12.57;;;;;;;-145.18;100.00;46935.81;4951567;28;20038;-63
2022/03/06 09:22:51;;;;;;;20.52;12.68;;;;;;;-145.18;100.00;46871.38;4952037;29;20042;-63
2022/03/06 09:25:17;;;;;;;18.07;12.90;;;;;;;-145.18;100.00;46871.38;4949534;28;20387;-63
2022/03/06 09:27:43;;;;;;;20.83;13.52;;;;;;;-145.18;100.00;46971.00;4947342;28;20027;-63
2022/03/06 09:30:10;;;;;;;20.95;12.63;;;;;;;-145.18;100.00;47150.72;4949946;28;20163;-63
2022/03/06 09:32:35;;;;;;;20.85;12.73;;;;;;;-145.18;100.00;47422.28;4950979;29;20031;-63
2022/03/06 09:35:01;;;;;;;19.47;11.57;;;;;;;-145.18;100.00;47391.00;4952159;28;20034;-63
2022/03/06 09:37:26;;;;;;;17.90;10.83;;;;;;;-145.18;100.00;47525.81;4948142;28;20031;-63
2022/03/06 09:39:52;;;;;;;21.53;12.43;;;;;;;-145.18;100.00;47508.22;4950599;29;20098;-63
2022/03/06 09:42:19;;;;;;;15.13;11.53;;;;;;;-145.18;100.00;47492.59;4951011;29;20063;-63
2022/03/06 09:44:48;;;;;;;19.23;11.82;;;;;;;-145.18;100.00;47308.97;4951400;29;20031;-63
2022/03/06 09:47:15;;;;;;;19.00;12.15;;;;;;;-145.18;100.00;47539.50;4956642;28;20050;-63
2022/03/06 09:49:46;;;;;;;18.10;11.40;;;;;;;-145.18;100.00;47518.00;4950980;29;20519;-63
2022/03/06 09:52:12;;;;;;;17.80;11.00;;;;;;;-145.18;100.00;47566.84;4948072;29;20262;-63
2022/03/06 09:54:38;;;;;;;17.83;9.87;;;;;;;-145.18;100.00;47537.53;4950672;28;20568;-63
2022/03/06 09:57:04;;;;;;;16.80;9.73;;;;;;;-145.18;100.00;47537.53;4958168;28;20031;-63
2022/03/06 09:59:31;;;;;;;15.00;10.63;;;;;;;-145.18;100.00;47529.72;4960844;28;20312;-63
2022/03/06 10:02:06;;;;;;;15.60;9.98;;;;;;;-145.18;100.00;47535.59;4953615;28;20876;-63
2022/03/06 10:04:34;;;;;;;18.57;12.73;;;;;;;-145.18;100.00;47545.34;4951976;28;20039;-63
2022/03/06 10:07:03;;;;;;;17.83;11.03;;;;;;;-145.18;100.00;47525.81;4954501;29;20266;-63
2022/03/06 10:09:30;;;;;;;16.83;10.10;;;;;;;-145.18;100.00;47508.22;4956367;28;20308;-63
2022/03/06 10:11:56;;;;;;;17.20;9.77;;;;;;;-145.18;100.00;47514.09;4961404;28;20269;-63
2022/03/06 10:14:38;;;;;;;13.73;9.27;;;;;;;-145.18;100.00;47486.75;4954707;28;20275;-63
2022/03/06 10:17:10;;;;;;;14.90;9.57;;;;;;;-145.18;100.00;47508.22;4937806;29;20118;-63
2022/03/06 10:19:51;;;;;;;15.23;9.00;;;;;;;-145.18;100.00;47478.94;4951960;28;20277;-63
2022/03/06 10:22:17;;;;;;;14.00;8.13;;;;;;;-145.18;100.00;47476.97;4953891;29;20280;-63
2022/03/06 10:24:54;;;;;;;13.73;9.10;;;;;;;-145.18;100.00;47488.69;4954492;29;20266;-63
2022/03/06 10:27:44;;;;;;;12.47;7.80;;;;;;;-145.18;100.00;47480.88;4950937;28;20292;-63
2022/03/06 10:30:29;;;;;;;14.57;8.70;;;;;;;-145.18;100.00;47449.63;4954176;28;20336;-63
2022/03/06 10:33:01;;;;;;;12.10;7.53;;;;;;;-145.18;100.00;47453.53;4958776;28;20265;-63
2022/03/06 10:35:36;;;;;;;12.20;7.87;;;;;;;-145.18;100.00;47457.44;4956210;28;20304;-64
2022/03/06 10:38:34;;;;;;;10.13;7.43;;;;;;;-145.18;100.00;47465.25;4951181;28;20286;-63
2022/03/06 10:41:15;;;;;;;13.70;7.47;;;;;;;-145.18;100.00;47463.31;4954024;28;20039;-63
2022/03/06 10:43:41;;;;;;;13.37;7.40;;;;;;;-145.18;100.00;47457.44;4950954;28;20625;-63
2022/03/06 10:46:16;;;;;;;14.10;8.90;;;;;;;-145.18;100.00;47445.72;4951313;28;20274;-63
2022/03/06 10:49:13;;;;;;;12.80;7.68;;;;;;;-145.18;100.00;47447.66;4932365;29;20278;-63
2022/03/06 10:51:51;;;;;;;10.73;7.20;;;;;;;-145.18;100.00;47461.34;4933713;28;20090;-63
2022/03/06 10:54:17;;;;;;;12.07;6.77;;;;;;;-145.18;100.00;47437.91;4950836;28;20053;-63
2022/03/06 10:56:49;;;;;;;13.33;7.70;;;;;;;-145.18;100.00;47455.47;4951874;28;20277;-63